createdAt,value
2023-03-06T00:00:31.388Z,21.7
2023-03-06T00:01:33.918Z,21.6
2023-03-06T00:02:36.154Z,21.6
2023-03-06T00:03:38.711Z,21.5
2023-03-06T00:04:41.212Z,21.3
2023-03-06T00:05:43.526Z,21.7
2023-03-06T00:06:46.118Z,21.6
2023-03-06T00:07:48.613Z,21.5
2023-03-06T00:08:50.581Z,21.4
2023-03-06T00:09:52.855Z,21.7
2023-03-06T00:10:55.066Z,21.6
2023-03-06T00:11:57.679Z,21.4
2023-03-06T00:13:00.194Z,21.7
2023-03-06T00:14:02.701Z,21.5
2023-03-06T00:15:05.744Z,21.5
2023-03-06T00:16:08.417Z,21.6
2023-03-06T00:17:10.509Z,21.8
2023-03-06T00:18:13.024Z,21.6
2023-03-06T00:19:15.239Z,21.7
2023-03-06T00:20:17.469Z,21.6
2023-03-06T00:21:19.983Z,21.7
2023-03-06T00:22:22.202Z,21.7
2023-03-06T00:23:24.434Z,21.8
2023-03-06T00:24:26.942Z,21.8
2023-03-06T00:25:29.509Z,21.8
2023-03-06T00:26:32.331Z,21.7
2023-03-06T00:27:34.266Z,21.7
2023-03-06T00:28:36.748Z,21.7
2023-03-06T00:29:39.123Z,21.6
2023-03-06T00:30:41.036Z,21.8
2023-03-06T00:31:43.642Z,21.7
2023-03-06T00:32:45.966Z,21.6
2023-03-06T00:33:48.484Z,21.7
2023-03-06T00:34:51.156Z,21.6
2023-03-06T00:35:53.674Z,21.8
2023-03-06T00:36:56.146Z,21.8
2023-03-06T00:37:58.674Z,21.9
2023-03-06T00:39:00.970Z,21.8
2023-03-06T00:40:03.197Z,21.6
2023-03-06T00:41:05.154Z,21.6
2023-03-06T00:42:07.141Z,21.9
2023-03-06T00:43:09.366Z,21.8
2023-03-06T00:44:11.824Z,21.6
2023-03-06T00:45:14.361Z,21.8
2023-03-06T00:46:16.608Z,21.7
2023-03-06T00:47:19.257Z,21.7
2023-03-06T00:48:21.490Z,21.8
2023-03-06T00:49:23.980Z,21.8
2023-03-06T00:50:26.495Z,21.9
2023-03-06T00:51:28.767Z,21.7
2023-03-06T00:52:30.688Z,21.9
2023-03-06T00:53:33.286Z,21.8
2023-03-06T00:54:35.524Z,21.7
2023-03-06T00:55:38.027Z,21.8
2023-03-06T00:56:40.579Z,21.7
2023-03-06T00:57:42.527Z,21.8
2023-03-06T00:58:44.470Z,21.8
2023-03-06T00:59:46.964Z,21.8
2023-03-06T01:00:49.489Z,21.9
2023-03-06T01:01:52.182Z,21.8
2023-03-06T01:02:55.078Z,22
2023-03-06T01:03:57.638Z,22
2023-03-06T01:05:00.184Z,21.8
2023-03-06T01:06:02.711Z,21.9
2023-03-06T01:07:05.205Z,22
2023-03-06T01:08:07.184Z,21.8
2023-03-06T01:09:09.426Z,22.1
2023-03-06T01:10:11.663Z,21.8
2023-03-06T01:11:14.234Z,22
2023-03-06T01:12:16.844Z,22
2023-03-06T01:13:19.071Z,21.9
2023-03-06T01:14:21.614Z,21.9
2023-03-06T01:15:23.935Z,21.9
2023-03-06T01:16:25.918Z,21.9
2023-03-06T01:17:28.364Z,22
2023-03-06T01:18:30.974Z,21.9
2023-03-06T01:19:33.458Z,21.9
2023-03-06T01:20:35.675Z,22
2023-03-06T01:21:38.196Z,22
2023-03-06T01:22:40.713Z,22.1
2023-03-06T01:23:43.001Z,22
2023-03-06T01:24:45.292Z,21.9
2023-03-06T01:25:47.808Z,22.1
2023-03-06T01:26:50.320Z,22
2023-03-06T01:27:52.600Z,22
2023-03-06T01:28:55.133Z,22
2023-03-06T01:29:57.387Z,22.1
2023-03-06T01:30:59.947Z,22
2023-03-06T01:32:02.619Z,22.1
2023-03-06T01:33:06.008Z,22.1
2023-03-06T01:34:08.642Z,22.2
2023-03-06T01:35:11.135Z,21.9
2023-03-06T01:36:13.724Z,22.3
2023-03-06T01:37:16.312Z,22.2
2023-03-06T01:38:18.543Z,22
2023-03-06T01:39:21.122Z,22
2023-03-06T01:40:23.627Z,21.9
2023-03-06T01:41:25.860Z,21.9
2023-03-06T01:42:28.365Z,21.9
2023-03-06T01:43:34.513Z,21.9
2023-03-06T01:44:36.996Z,22.1
2023-03-06T01:45:39.273Z,22.1
2023-03-06T01:46:41.904Z,22
2023-03-06T01:47:44.537Z,22
2023-03-06T01:48:46.761Z,22
2023-03-06T01:49:49.369Z,22
2023-03-06T01:50:51.572Z,22.1
2023-03-06T01:51:53.494Z,22.1
2023-03-06T01:52:55.713Z,22
2023-03-06T01:53:57.912Z,22.4
2023-03-06T01:55:00.414Z,22.1
2023-03-06T01:56:02.908Z,22.2
2023-03-06T01:57:04.817Z,21.9
2023-03-06T01:58:07.022Z,22
2023-03-06T01:59:09.636Z,22
2023-03-06T02:00:11.568Z,22.1
2023-03-06T02:01:13.864Z,22.1
2023-03-06T02:02:16.822Z,22.3
2023-03-06T02:03:19.376Z,22.1
2023-03-06T02:04:21.869Z,22.1
2023-03-06T02:05:24.518Z,22.2
2023-03-06T02:06:26.452Z,22.2
2023-03-06T02:07:28.408Z,22.2
2023-03-06T02:08:30.938Z,22
2023-03-06T02:09:33.418Z,22.1
2023-03-06T02:10:35.611Z,22.1
2023-03-06T02:11:37.894Z,22.2
2023-03-06T02:12:40.822Z,21.9
2023-03-06T02:13:43.347Z,22.1
2023-03-06T02:14:45.857Z,22
2023-03-06T02:15:48.093Z,22.1
2023-03-06T02:16:50.657Z,22.3
2023-03-06T02:17:53.534Z,22.2
2023-03-06T02:18:55.514Z,22.3
2023-03-06T02:19:58.072Z,22
2023-03-06T02:21:00.376Z,22.1
2023-03-06T02:22:02.632Z,22.1
2023-03-06T02:23:05.121Z,22.1
2023-03-06T02:24:06.774Z,22.2
2023-03-06T02:25:09.004Z,22
2023-03-06T02:26:11.235Z,22
2023-03-06T02:27:13.719Z,22.3
2023-03-06T02:28:16.265Z,22.1
2023-03-06T02:29:18.517Z,22.1
2023-03-06T02:30:21.046Z,22.1
2023-03-06T02:31:23.555Z,22.1
2023-03-06T02:32:26.052Z,21.9
2023-03-06T02:33:28.907Z,22.1
2023-03-06T02:34:31.143Z,22
2023-03-06T02:35:33.630Z,22.1
2023-03-06T02:36:36.470Z,22.1
2023-03-06T02:37:38.671Z,22.2
2023-03-06T02:38:40.881Z,22
2023-03-06T02:39:43.084Z,22
2023-03-06T02:40:45.034Z,22.2
2023-03-06T02:41:47.246Z,22.4
2023-03-06T02:42:49.741Z,22
2023-03-06T02:43:52.244Z,22.2
2023-03-06T02:44:54.758Z,22.2
2023-03-06T02:45:56.746Z,22.1
2023-03-06T02:46:59.401Z,22.2
2023-03-06T02:48:01.935Z,22
2023-03-06T02:49:04.163Z,22.2
2023-03-06T02:50:06.634Z,22
2023-03-06T02:51:08.838Z,22
2023-03-06T02:52:11.444Z,22.3
2023-03-06T02:53:13.381Z,22.3
2023-03-06T02:54:15.625Z,22.2
2023-03-06T02:55:18.114Z,22.3
2023-03-06T02:56:20.618Z,22.2
2023-03-06T02:57:23.133Z,22
2023-03-06T02:58:25.355Z,22.2
2023-03-06T02:59:27.312Z,22.2
2023-03-06T03:00:29.550Z,22.1
2023-03-06T03:01:32.102Z,22
2023-03-06T03:02:34.611Z,22
2023-03-06T03:03:37.132Z,22.3
2023-03-06T03:04:39.707Z,22.2
2023-03-06T03:05:41.962Z,22
2023-03-06T03:06:44.479Z,22
2023-03-06T03:07:47.114Z,22
2023-03-06T03:08:49.654Z,22.2
2023-03-06T03:09:52.174Z,22.2
2023-03-06T03:10:54.126Z,22
2023-03-06T03:11:56.349Z,22.1
2023-03-06T03:12:58.879Z,22.2
2023-03-06T03:14:01.390Z,22
2023-03-06T03:15:03.879Z,22.4
2023-03-06T03:16:06.154Z,22.1
2023-03-06T03:17:08.776Z,22
2023-03-06T03:18:11.284Z,22.2
2023-03-06T03:19:13.798Z,22.1
2023-03-06T03:20:15.739Z,22.3
2023-03-06T03:21:17.952Z,22
2023-03-06T03:22:20.360Z,22.2
2023-03-06T03:23:22.724Z,22.2
2023-03-06T03:24:24.143Z,21.9
2023-03-06T03:25:26.610Z,22
2023-03-06T03:26:28.318Z,22.2
2023-03-06T03:27:30.539Z,22.2
2023-03-06T03:28:33.055Z,22
2023-03-06T03:29:35.260Z,22.1
2023-03-06T03:30:37.738Z,22.3
2023-03-06T03:31:39.996Z,22
2023-03-06T03:32:42.522Z,22.3
2023-03-06T03:33:45.003Z,22.3
2023-03-06T03:34:47.488Z,22.1
2023-03-06T03:35:50.037Z,22.2
2023-03-06T03:36:52.703Z,22.2
2023-03-06T03:37:55.208Z,22.2
2023-03-06T03:38:57.795Z,22.2
2023-03-06T03:40:00.057Z,22.3
2023-03-06T03:41:02.311Z,22.2
2023-03-06T03:42:04.871Z,22.3
2023-03-06T03:43:07.357Z,22.2
2023-03-06T03:44:09.565Z,22.2
2023-03-06T03:45:12.066Z,22.2
2023-03-06T03:46:14.709Z,22.2
2023-03-06T03:47:17.015Z,22.1
2023-03-06T03:48:19.535Z,22.2
2023-03-06T03:49:22.168Z,22.1
2023-03-06T03:50:24.371Z,22.2
2023-03-06T03:51:26.781Z,22.1
2023-03-06T03:52:29.015Z,22
2023-03-06T03:53:31.498Z,22.2
2023-03-06T03:54:34.122Z,22.2
2023-03-06T03:55:36.356Z,22.2
2023-03-06T03:56:38.841Z,22.4
2023-03-06T03:57:40.802Z,22
2023-03-06T03:58:43.350Z,22.2
2023-03-06T03:59:45.640Z,22.2
2023-03-06T04:00:47.977Z,22.5
2023-03-06T04:01:50.608Z,22.2
2023-03-06T04:02:52.606Z,22.1
2023-03-06T04:03:54.860Z,22.4
2023-03-06T04:04:57.429Z,22.2
2023-03-06T04:06:00.054Z,22.2
2023-03-06T04:07:02.295Z,22.2
2023-03-06T04:08:04.788Z,22.2
2023-03-06T04:09:07.285Z,22.2
2023-03-06T04:10:09.928Z,22.1
2023-03-06T04:11:12.439Z,22.2
2023-03-06T04:12:14.095Z,22.2
2023-03-06T04:13:16.301Z,22
2023-03-06T04:14:18.829Z,22.2
2023-03-06T04:15:20.735Z,22.1
2023-03-06T04:16:23.257Z,22.2
2023-03-06T04:17:25.984Z,22.2
2023-03-06T04:18:28.209Z,22.2
2023-03-06T04:19:30.750Z,22.1
2023-03-06T04:20:32.974Z,22.1
2023-03-06T04:21:34.890Z,21.9
2023-03-06T04:22:37.100Z,22
2023-03-06T04:23:39.342Z,22
2023-03-06T04:24:41.552Z,22.1
2023-03-06T04:25:44.276Z,22.1
2023-03-06T04:26:46.764Z,21.9
2023-03-06T04:27:49.345Z,22
2023-03-06T04:28:51.554Z,22
2023-03-06T04:29:53.793Z,22
2023-03-06T04:30:55.979Z,21.9
2023-03-06T04:31:57.929Z,22.1
2023-03-06T04:33:00.523Z,22.2
2023-03-06T04:34:03.014Z,21.9
2023-03-06T04:35:05.554Z,22
2023-03-06T04:36:08.134Z,21.8
2023-03-06T04:37:10.419Z,21.7
2023-03-06T04:38:12.965Z,21.9
2023-03-06T04:39:15.478Z,22.1
2023-03-06T04:40:18.072Z,22
2023-03-06T04:41:21.680Z,22
2023-03-06T04:42:24.682Z,22.2
2023-03-06T04:43:27.304Z,22
2023-03-06T04:44:29.642Z,22.1
2023-03-06T04:45:32.162Z,22.1
2023-03-06T04:46:34.973Z,22.1
2023-03-06T04:47:37.479Z,22
2023-03-06T04:48:39.998Z,21.9
2023-03-06T04:49:42.495Z,21.8
2023-03-06T04:50:45.029Z,21.7
2023-03-06T04:51:47.523Z,21.8
2023-03-06T04:52:50.225Z,22
2023-03-06T04:53:52.738Z,21.9
2023-03-06T04:54:55.256Z,21.8
2023-03-06T04:55:57.725Z,21.9
2023-03-06T04:57:00.321Z,21.9
2023-03-06T04:58:02.297Z,21.8
2023-03-06T04:59:04.818Z,21.8
2023-03-06T05:00:07.027Z,21.8
2023-03-06T05:01:09.334Z,22
2023-03-06T05:02:12.216Z,21.8
2023-03-06T05:03:14.673Z,21.8
2023-03-06T05:04:17.150Z,21.7
2023-03-06T05:05:19.659Z,22
2023-03-06T05:06:21.915Z,21.8
2023-03-06T05:07:24.398Z,21.8
2023-03-06T05:08:26.880Z,22
2023-03-06T05:09:29.373Z,21.9
2023-03-06T05:10:31.600Z,21.9
2023-03-06T05:11:33.820Z,21.9
2023-03-06T05:12:36.394Z,21.8
2023-03-06T05:13:38.665Z,22
2023-03-06T05:14:40.885Z,21.8
2023-03-06T05:15:43.122Z,21.9
2023-03-06T05:16:45.686Z,21.9
2023-03-06T05:17:48.494Z,21.8
2023-03-06T05:18:50.984Z,22
2023-03-06T05:19:53.516Z,21.7
2023-03-06T05:20:56.021Z,21.9
2023-03-06T05:21:58.527Z,21.9
2023-03-06T05:23:01.028Z,21.7
2023-03-06T05:24:03.611Z,21.7
2023-03-06T05:25:05.849Z,21.7
2023-03-06T05:26:08.105Z,21.8
2023-03-06T05:27:10.584Z,21.9
2023-03-06T05:28:12.935Z,21.7
2023-03-06T05:29:15.439Z,21.8
2023-03-06T05:30:17.960Z,21.9
2023-03-06T05:31:20.564Z,21.8
2023-03-06T05:32:23.325Z,21.7
2023-03-06T05:33:25.832Z,21.9
2023-03-06T05:34:28.073Z,21.9
2023-03-06T05:35:30.632Z,22
2023-03-06T05:36:33.430Z,21.8
2023-03-06T05:37:35.715Z,21.8
2023-03-06T05:38:39.257Z,21.7
2023-03-06T05:39:41.731Z,21.7
2023-03-06T05:40:44.240Z,21.8
2023-03-06T05:41:46.512Z,21.7
2023-03-06T05:42:48.793Z,21.8
2023-03-06T05:43:51.405Z,21.7
2023-03-06T05:44:53.074Z,21.6
2023-03-06T05:45:54.787Z,21.7
2023-03-06T05:46:56.882Z,21.7
2023-03-06T05:47:59.364Z,21.6
2023-03-06T05:49:01.855Z,21.7
2023-03-06T05:50:03.834Z,21.7
2023-03-06T05:51:05.803Z,22
2023-03-06T05:52:08.330Z,21.8
2023-03-06T05:53:10.913Z,21.8
2023-03-06T05:54:13.634Z,21.7
2023-03-06T05:55:15.845Z,21.7
2023-03-06T05:56:18.366Z,21.7
2023-03-06T05:57:20.591Z,21.7
2023-03-06T05:58:23.114Z,21.8
2023-03-06T05:59:25.700Z,21.8
2023-03-06T06:00:28.196Z,21.6
2023-03-06T06:01:30.431Z,21.6
2023-03-06T06:02:32.952Z,21.7
2023-03-06T06:03:35.539Z,21.8
2023-03-06T06:04:38.043Z,21.6
2023-03-06T06:05:39.999Z,21.8
2023-03-06T06:06:42.253Z,21.6
2023-03-06T06:07:44.507Z,21.8
2023-03-06T06:08:47.064Z,21.6
2023-03-06T06:09:49.542Z,21.7
2023-03-06T06:10:53.441Z,21.6
2023-03-06T06:11:55.731Z,21.8
2023-03-06T06:12:58.228Z,21.6
2023-03-06T06:14:00.742Z,21.8
2023-03-06T06:15:03.383Z,21.7
2023-03-06T06:16:05.918Z,21.6
2023-03-06T06:17:08.360Z,21.8
2023-03-06T06:18:10.873Z,21.5
2023-03-06T06:19:13.191Z,21.7
2023-03-06T06:20:15.442Z,21.5
2023-03-06T06:21:17.923Z,21.7
2023-03-06T06:22:20.179Z,21.8
2023-03-06T06:23:22.669Z,21.8
2023-03-06T06:24:25.202Z,21.4
2023-03-06T06:25:27.721Z,21.6
2023-03-06T06:26:29.954Z,21.6
2023-03-06T06:27:32.467Z,21.7
2023-03-06T06:28:34.989Z,21.7
2023-03-06T06:29:37.256Z,21.5
2023-03-06T06:30:39.850Z,21.7
2023-03-06T06:31:42.348Z,21.6
2023-03-06T06:32:44.321Z,21.7
2023-03-06T06:33:46.554Z,21.7
2023-03-06T06:34:49.075Z,21.7
2023-03-06T06:35:51.632Z,21.8
2023-03-06T06:36:54.468Z,21.6
2023-03-06T06:37:56.972Z,21.8
2023-03-06T06:38:59.488Z,21.8
2023-03-06T06:40:02.050Z,21.6
2023-03-06T06:41:33.271Z,21.7
2023-03-06T06:42:28.502Z,21.5
2023-03-06T06:43:14.212Z,21.7
2023-03-06T06:44:16.719Z,21.8
2023-03-06T06:45:19.226Z,21.9
2023-03-06T06:46:59.187Z,21.6
2023-03-06T06:47:26.889Z,21.7
2023-03-06T06:48:29.538Z,21.8
2023-03-06T06:49:31.750Z,21.8
2023-03-06T06:50:33.741Z,21.7
2023-03-06T06:51:35.992Z,21.5
2023-03-06T06:52:38.539Z,21.6
2023-03-06T06:53:40.494Z,21.9
2023-03-06T06:54:42.759Z,21.8
2023-03-06T06:55:45.025Z,21.8
2023-03-06T06:56:47.552Z,22
2023-03-06T06:57:49.828Z,21.7
2023-03-06T06:58:52.337Z,21.7
2023-03-06T07:00:00.250Z,21.8
2023-03-06T07:01:02.561Z,21.8
2023-03-06T07:02:05.182Z,21.6
2023-03-06T07:03:07.691Z,21.7
2023-03-06T07:04:10.254Z,21.7
2023-03-06T07:05:12.682Z,21.8
2023-03-06T07:06:14.900Z,21.7
2023-03-06T07:07:17.119Z,21.7
2023-03-06T07:08:19.344Z,21.8
2023-03-06T07:09:21.559Z,21.9
2023-03-06T07:10:24.081Z,21.5
2023-03-06T07:11:26.712Z,21.7
2023-03-06T07:12:29.250Z,21.6
2023-03-06T07:13:31.784Z,21.9
2023-03-06T07:14:34.345Z,21.7
2023-03-06T07:15:36.964Z,21.6
2023-03-06T07:16:39.454Z,21.7
2023-03-06T07:17:42.063Z,21.9
2023-03-06T07:18:44.475Z,21.7
2023-03-06T07:19:46.696Z,21.6
2023-03-06T07:20:49.479Z,21.6
2023-03-06T07:21:51.718Z,21.7
2023-03-06T07:22:54.234Z,21.6
2023-03-06T07:23:56.789Z,21.7
2023-03-06T07:24:59.341Z,21.6
2023-03-06T07:26:01.613Z,21.7
2023-03-06T07:27:03.590Z,21.6
2023-03-06T07:28:06.214Z,21.5
2023-03-06T07:29:08.566Z,21.5
2023-03-06T07:30:11.139Z,21.7
2023-03-06T07:31:13.120Z,21.7
2023-03-06T07:32:15.960Z,21.6
2023-03-06T07:33:18.793Z,21.7
2023-03-06T07:34:21.340Z,21.6
2023-03-06T07:35:23.300Z,21.6
2023-03-06T07:36:25.647Z,21.7
2023-03-06T07:37:28.177Z,21.9
2023-03-06T07:38:30.408Z,21.8
2023-03-06T07:39:32.617Z,21.5
2023-03-06T07:40:35.175Z,21.8
2023-03-06T07:41:37.688Z,21.8
2023-03-06T07:42:40.284Z,21.8
2023-03-06T07:43:42.820Z,21.6
2023-03-06T07:44:45.372Z,21.8
2023-03-06T07:45:47.918Z,21.6
2023-03-06T07:46:50.201Z,21.7
2023-03-06T07:47:52.454Z,21.7
2023-03-06T07:48:55.100Z,21.9
2023-03-06T07:49:57.592Z,21.7
2023-03-06T07:50:59.882Z,21.7
2023-03-06T07:52:02.153Z,21.7
2023-03-06T07:53:03.799Z,21.5
2023-03-06T07:54:05.748Z,21.6
2023-03-06T07:55:08.011Z,21.5
2023-03-06T07:56:10.548Z,21.7
2023-03-06T07:57:12.824Z,21.6
2023-03-06T07:58:15.121Z,21.7
2023-03-06T07:59:17.422Z,21.6
2023-03-06T08:00:20.023Z,21.6
2023-03-06T08:01:22.542Z,21.7
2023-03-06T08:02:25.196Z,21.8
2023-03-06T08:03:26.940Z,21.7
2023-03-06T08:04:30.294Z,21.8
2023-03-06T08:05:32.636Z,21.6
2023-03-06T08:06:34.905Z,21.7
2023-03-06T08:07:37.404Z,21.6
2023-03-06T08:08:39.957Z,21.8
2023-03-06T08:09:42.171Z,21.6
2023-03-06T08:10:44.342Z,21.8
2023-03-06T08:11:46.864Z,21.6
2023-03-06T08:12:49.134Z,21.8
2023-03-06T08:13:51.422Z,21.8
2023-03-06T08:14:53.780Z,21.6
2023-03-06T08:15:56.361Z,21.7
2023-03-06T08:16:58.981Z,21.8
2023-03-06T08:18:01.539Z,21.6
2023-03-06T08:19:04.095Z,21.5
2023-03-06T08:20:06.704Z,21.6
2023-03-06T08:21:09.259Z,21.4
2023-03-06T08:22:11.516Z,21.5
2023-03-06T08:23:14.081Z,21.7
2023-03-06T08:24:16.636Z,21.5
2023-03-06T08:25:18.932Z,21.6
2023-03-06T08:26:21.207Z,21.7
2023-03-06T08:27:23.747Z,21.7
2023-03-06T08:28:26.002Z,21.5
2023-03-06T08:29:28.319Z,21.6
2023-03-06T08:30:33.478Z,21.5
2023-03-06T08:31:36.051Z,21.6
2023-03-06T08:32:38.987Z,21.5
2023-03-06T08:33:42.094Z,21.5
2023-03-06T08:34:43.775Z,21.5
2023-03-06T08:35:46.454Z,21.6
2023-03-06T08:36:48.838Z,21.6
2023-03-06T08:37:51.383Z,21.4
2023-03-06T08:38:53.870Z,21.5
2023-03-06T08:39:56.134Z,21.6
2023-03-06T08:40:58.699Z,21.7
2023-03-06T08:42:00.944Z,21.5
2023-03-06T08:43:03.525Z,21.6
2023-03-06T08:44:06.082Z,21.7
2023-03-06T08:45:08.657Z,21.4
2023-03-06T08:46:11.199Z,21.6
2023-03-06T08:47:13.440Z,21.5
2023-03-06T08:48:15.525Z,21.4
2023-03-06T08:49:18.087Z,21.6
2023-03-06T08:50:20.586Z,21.5
2023-03-06T08:51:23.415Z,21.5
2023-03-06T08:52:26.080Z,21.6
2023-03-06T08:53:41.953Z,21.8
2023-03-06T08:54:33.037Z,21.8
2023-03-06T08:55:35.563Z,21.5
2023-03-06T08:56:37.777Z,21.6
2023-03-06T08:57:39.480Z,21.6
2023-03-06T08:58:41.705Z,21.4
2023-03-06T08:59:43.941Z,21.6
2023-03-06T09:00:46.103Z,21.5
2023-03-06T09:01:49.348Z,21.6
2023-03-06T09:02:51.583Z,21.5
2023-03-06T09:03:53.884Z,21.5
2023-03-06T09:04:56.406Z,21.6
2023-03-06T09:05:58.967Z,21.6
2023-03-06T09:07:01.657Z,21.6
2023-03-06T09:08:03.949Z,21.7
2023-03-06T09:09:06.187Z,21.7
2023-03-06T09:10:08.509Z,21.4
2023-03-06T09:11:11.168Z,21.7
2023-03-06T09:12:13.739Z,21.5
2023-03-06T09:13:16.291Z,21.4
2023-03-06T09:14:18.312Z,21.7
2023-03-06T09:15:20.846Z,21.7
2023-03-06T09:16:23.264Z,21.4
2023-03-06T09:17:25.853Z,21.6
2023-03-06T09:18:28.355Z,21.6
2023-03-06T09:19:30.863Z,21.5
2023-03-06T09:20:32.606Z,21.5
2023-03-06T09:21:35.125Z,21.5
2023-03-06T09:22:37.889Z,21.6
2023-03-06T09:23:40.140Z,21.8
2023-03-06T09:24:42.414Z,21.6
2023-03-06T09:25:44.718Z,21.7
2023-03-06T09:26:48.865Z,21.6
2023-03-06T09:28:05.299Z,21.7
2023-03-06T09:28:57.209Z,21.6
2023-03-06T09:29:58.882Z,21.6
2023-03-06T09:31:00.950Z,21.6
2023-03-06T09:32:04.033Z,21.7
2023-03-06T09:33:06.765Z,21.7
2023-03-06T09:34:09.072Z,21.3
2023-03-06T09:35:11.600Z,21.6
2023-03-06T09:36:14.137Z,21.5
2023-03-06T09:37:16.361Z,21.6
2023-03-06T09:38:19.795Z,21.4
2023-03-06T09:39:22.413Z,21.7
2023-03-06T09:40:24.961Z,21.5
2023-03-06T09:41:26.973Z,21.6
2023-03-06T09:42:28.937Z,21.6
2023-03-06T09:43:31.460Z,21.4
2023-03-06T09:44:33.695Z,21.4
2023-03-06T09:45:35.952Z,21.3
2023-03-06T09:46:38.487Z,21.6
2023-03-06T09:47:40.856Z,21.6
2023-03-06T09:48:43.381Z,21.6
2023-03-06T09:49:45.659Z,21.8
2023-03-06T09:50:47.874Z,21.5
2023-03-06T09:51:49.847Z,21.6
2023-03-06T09:52:52.159Z,21.5
2023-03-06T09:53:54.917Z,21.5
2023-03-06T09:54:57.454Z,21.7
2023-03-06T09:55:59.783Z,21.7
2023-03-06T09:57:02.317Z,21.8
2023-03-06T09:58:07.201Z,21.4
2023-03-06T09:59:09.800Z,21.7
2023-03-06T10:00:12.296Z,21.4
2023-03-06T10:01:14.540Z,21.8
2023-03-06T10:02:17.189Z,21.5
2023-03-06T10:03:20.076Z,21.6
2023-03-06T10:04:23.043Z,21.5
2023-03-06T10:05:25.573Z,21.4
2023-03-06T10:06:27.805Z,21.3
2023-03-06T10:07:29.733Z,21.6
2023-03-06T10:08:32.314Z,21.5
2023-03-06T10:09:34.963Z,21.8
2023-03-06T10:10:37.168Z,21.7
2023-03-06T10:11:39.575Z,21.6
2023-03-06T10:12:42.085Z,21.4
2023-03-06T10:13:44.643Z,21.5
2023-03-06T10:14:49.227Z,21.8
2023-03-06T10:15:51.607Z,21.6
2023-03-06T10:16:54.063Z,21.6
2023-03-06T10:17:56.301Z,21.5
2023-03-06T10:18:58.852Z,21.6
2023-03-06T10:20:01.402Z,21.5
2023-03-06T10:21:17.221Z,21.7
2023-03-06T10:22:08.657Z,21.8
2023-03-06T10:23:11.798Z,21.7
2023-03-06T10:24:14.289Z,21.8
2023-03-06T10:25:16.933Z,21.7
2023-03-06T10:26:19.281Z,21.5
2023-03-06T10:27:22.242Z,21.5
2023-03-06T10:28:24.937Z,21.7
2023-03-06T10:29:27.511Z,21.7
2023-03-06T10:30:29.768Z,21.9
2023-03-06T10:31:32.308Z,21.5
2023-03-06T10:32:46.390Z,21.6
2023-03-06T10:33:40.114Z,21.6
2023-03-06T10:34:42.393Z,21.6
2023-03-06T10:35:44.976Z,21.8
2023-03-06T10:36:47.607Z,21.5
2023-03-06T10:37:49.878Z,21.7
2023-03-06T10:38:52.136Z,21.5
2023-03-06T10:39:54.116Z,21.4
2023-03-06T10:40:56.936Z,21.6
2023-03-06T10:41:59.175Z,21.6
2023-03-06T10:43:11.017Z,21.6
2023-03-06T10:44:06.440Z,21.6
2023-03-06T10:45:09.010Z,21.5
2023-03-06T10:46:11.044Z,21.6
2023-03-06T10:47:13.754Z,21.6
2023-03-06T10:48:16.013Z,21.5
2023-03-06T10:49:18.518Z,21.5
2023-03-06T10:50:21.107Z,21.7
2023-03-06T10:51:23.802Z,21.6
2023-03-06T10:52:26.331Z,21.8
2023-03-06T10:53:28.855Z,21.6
2023-03-06T10:54:31.409Z,21.6
2023-03-06T10:55:33.681Z,21.7
2023-03-06T10:56:36.344Z,21.6
2023-03-06T10:57:38.877Z,21.7
2023-03-06T10:58:41.456Z,21.4
2023-03-06T10:59:43.980Z,21.7
2023-03-06T11:00:46.521Z,21.6
2023-03-06T11:01:48.856Z,21.6
2023-03-06T11:02:50.912Z,21.6
2023-03-06T11:03:53.453Z,21.7
2023-03-06T11:04:56.043Z,21.6
2023-03-06T11:05:58.731Z,21.7
2023-03-06T11:07:01.272Z,21.5
2023-03-06T11:08:03.226Z,21.6
2023-03-06T11:09:05.739Z,21.6
2023-03-06T11:10:08.240Z,21.6
2023-03-06T11:11:10.483Z,21.7
2023-03-06T11:12:13.139Z,21.7
2023-03-06T11:13:15.663Z,21.7
2023-03-06T11:14:18.164Z,21.8
2023-03-06T11:15:20.448Z,21.8
2023-03-06T11:16:25.545Z,21.4
2023-03-06T11:17:27.792Z,21.5
2023-03-06T11:18:30.330Z,21.6
2023-03-06T11:19:32.546Z,21.6
2023-03-06T11:20:48.828Z,21.7
2023-03-06T11:21:40.130Z,21.7
2023-03-06T11:22:42.636Z,21.6
2023-03-06T11:23:45.184Z,21.4
2023-03-06T11:24:47.499Z,21.5
2023-03-06T11:25:49.725Z,21.8
2023-03-06T11:26:52.383Z,21.5
2023-03-06T11:27:54.995Z,21.4
2023-03-06T11:28:56.993Z,21.3
2023-03-06T11:29:59.724Z,21.5
2023-03-06T11:31:01.777Z,21.4
2023-03-06T11:32:04.353Z,21.6
2023-03-06T11:33:06.904Z,21.8
2023-03-06T11:34:09.172Z,21.5
2023-03-06T11:35:11.744Z,21.5
2023-03-06T11:36:14.105Z,21.5
2023-03-06T11:37:16.686Z,21.3
2023-03-06T11:38:18.947Z,21.5
2023-03-06T11:39:21.477Z,21.8
2023-03-06T11:40:24.028Z,21.7
2023-03-06T11:41:26.282Z,21.4
2023-03-06T11:42:28.834Z,21.3
2023-03-06T11:43:31.649Z,21.3
2023-03-06T11:44:33.610Z,21.4
2023-03-06T11:45:35.592Z,21.3
2023-03-06T11:46:37.637Z,21.6
2023-03-06T11:47:40.528Z,21.3
2023-03-06T11:48:43.028Z,21.5
2023-03-06T11:49:45.586Z,21.6
2023-03-06T11:50:47.808Z,21.6
2023-03-06T11:51:50.063Z,21.5
2023-03-06T11:52:52.351Z,21.4
2023-03-06T11:53:54.890Z,21.5
2023-03-06T11:54:56.857Z,21.5
2023-03-06T11:55:59.133Z,21.6
2023-03-06T11:57:01.134Z,21.4
2023-03-06T11:58:03.686Z,21.5
2023-03-06T11:59:06.367Z,21.5
2023-03-06T12:00:08.659Z,21.6
2023-03-06T12:01:10.906Z,21.3
2023-03-06T12:02:13.237Z,21.5
2023-03-06T12:03:16.228Z,21.6
2023-03-06T12:04:18.183Z,21.5
2023-03-06T12:05:20.512Z,21.6
2023-03-06T12:06:22.854Z,21.5
2023-03-06T12:07:25.079Z,21.6
2023-03-06T12:08:27.380Z,21.4
2023-03-06T12:09:29.905Z,21.4
2023-03-06T12:10:32.147Z,21.7
2023-03-06T12:11:34.671Z,21.7
2023-03-06T12:12:37.272Z,21.5
2023-03-06T12:13:39.533Z,21.7
2023-03-06T12:14:42.152Z,21.6
2023-03-06T12:15:44.184Z,21.5
2023-03-06T12:16:46.739Z,21.6
2023-03-06T12:17:49.550Z,21.6
2023-03-06T12:18:51.794Z,21.7
2023-03-06T12:19:54.074Z,21.6
2023-03-06T12:20:56.391Z,21.6
2023-03-06T12:21:58.904Z,21.4
2023-03-06T12:23:14.401Z,21.5
2023-03-06T12:24:06.338Z,21.7
2023-03-06T12:25:08.863Z,21.4
2023-03-06T12:26:11.397Z,21.3
2023-03-06T12:27:13.374Z,21.7
2023-03-06T12:28:15.935Z,21.4
2023-03-06T12:29:18.451Z,21.6
2023-03-06T12:30:21.316Z,21.6
2023-03-06T12:31:23.718Z,21.7
2023-03-06T12:32:26.745Z,22
2023-03-06T12:33:29.422Z,21.7
2023-03-06T12:34:31.706Z,21.6
2023-03-06T12:35:34.321Z,21.6
2023-03-06T12:36:37.170Z,21.4
2023-03-06T12:37:39.432Z,21.6
2023-03-06T12:38:41.936Z,21.5
2023-03-06T12:39:44.486Z,21.5
2023-03-06T12:40:47.253Z,21.7
2023-03-06T12:41:49.480Z,21.4
2023-03-06T12:42:52.152Z,21.6
2023-03-06T12:43:54.692Z,21.5
2023-03-06T12:44:56.643Z,21.7
2023-03-06T12:45:59.405Z,21.3
2023-03-06T12:47:01.935Z,21.6
2023-03-06T12:48:04.162Z,21.6
2023-03-06T12:49:06.125Z,21.4
2023-03-06T12:50:08.619Z,21.4
2023-03-06T12:51:10.873Z,21.4
2023-03-06T12:52:16.013Z,21.4
2023-03-06T12:53:18.565Z,21.7
2023-03-06T12:54:20.817Z,21.6
2023-03-06T12:55:25.781Z,21.5
2023-03-06T12:56:28.314Z,21.5
2023-03-06T12:57:30.578Z,21.5
2023-03-06T12:58:33.089Z,21.4
2023-03-06T12:59:35.647Z,21.7
2023-03-06T13:00:37.939Z,21.4
2023-03-06T13:01:40.673Z,21.6
2023-03-06T13:02:43.108Z,21.7
2023-03-06T13:03:46.054Z,21.5
2023-03-06T13:04:48.050Z,21.6
2023-03-06T13:05:50.314Z,21.5
2023-03-06T13:06:52.494Z,21.6
2023-03-06T13:07:55.047Z,21.4
2023-03-06T13:08:57.580Z,21.4
2023-03-06T13:10:00.120Z,21.4
2023-03-06T13:11:02.707Z,21.5
2023-03-06T13:12:05.217Z,21.4
2023-03-06T13:13:07.792Z,21.6
2023-03-06T13:14:10.302Z,21.5
2023-03-06T13:15:12.805Z,21.6
2023-03-06T13:16:14.848Z,21.5
2023-03-06T13:17:17.901Z,21.4
2023-03-06T13:18:20.167Z,21.6
2023-03-06T13:19:22.748Z,21.4
2023-03-06T13:20:25.076Z,21.6
2023-03-06T13:21:27.650Z,21.5
2023-03-06T13:22:30.271Z,21.5
2023-03-06T13:23:32.532Z,21.7
2023-03-06T13:24:35.176Z,21.3
2023-03-06T13:25:39.914Z,21.6
2023-03-06T13:26:42.560Z,21.6
2023-03-06T13:27:45.056Z,21.8
2023-03-06T13:28:47.358Z,21.5
2023-03-06T13:29:49.594Z,21.6
2023-03-06T13:30:53.058Z,21.5
2023-03-06T13:31:55.981Z,21.5
2023-03-06T13:32:58.690Z,21.5
2023-03-06T13:34:00.691Z,21.6
2023-03-06T13:35:03.317Z,21.6
2023-03-06T13:36:05.374Z,21.6
2023-03-06T13:37:07.349Z,21.5
2023-03-06T13:38:09.571Z,21.3
2023-03-06T13:39:12.119Z,21.4
2023-03-06T13:40:14.677Z,21.6
2023-03-06T13:41:16.668Z,21.6
2023-03-06T13:42:19.225Z,21.4
2023-03-06T13:43:21.779Z,21.5
2023-03-06T13:44:24.066Z,21.2
2023-03-06T13:45:26.737Z,21.5
2023-03-06T13:46:28.770Z,21.7
2023-03-06T13:47:31.313Z,21.6
2023-03-06T13:48:45.052Z,21.5
2023-03-06T13:49:43.957Z,21.5
2023-03-06T13:50:46.773Z,21.6
2023-03-06T13:51:49.085Z,21.5
2023-03-06T13:52:51.062Z,21.3
2023-03-06T13:53:56.583Z,21.4
2023-03-06T13:54:59.386Z,21.5
2023-03-06T13:56:01.953Z,21.4
2023-03-06T13:57:04.528Z,21.3